createdAt,value
2018-06-16T00:00:09.847Z,52.30
2018-06-16T00:00:41.580Z,52.20
2018-06-16T00:01:13.296Z,51.60
2018-06-16T00:01:45.020Z,52.40
2018-06-16T00:02:16.744Z,52.20
2018-06-16T00:02:48.461Z,52.40
2018-06-16T00:03:20.190Z,52.20
2018-06-16T00:03:51.910Z,52.20
2018-06-16T00:04:55.669Z,51.80
2018-06-16T00:05:27.390Z,52.40
2018-06-16T00:05:59.122Z,52.20
2018-06-16T00:06:30.884Z,52.10
2018-06-16T00:07:02.845Z,52.60
2018-06-16T00:07:34.771Z,52.70
2018-06-16T00:08:06.481Z,52.50
2018-06-16T00:08:38.199Z,52.60
2018-06-16T00:09:09.921Z,52.40
2018-06-16T00:09:41.642Z,52.40
2018-06-16T00:10:13.370Z,52.20
2018-06-16T00:10:45.133Z,52.00
2018-06-16T00:11:17.034Z,52.50
2018-06-16T00:11:48.772Z,52.70
2018-06-16T00:12:20.519Z,51.90
2018-06-16T00:12:52.261Z,52.10
2018-06-16T00:13:23.981Z,52.50
2018-06-16T00:13:55.726Z,52.30
2018-06-16T00:14:27.449Z,52.00
2018-06-16T00:14:59.167Z,52.20
2018-06-16T00:15:30.895Z,51.70
2018-06-16T00:16:02.627Z,51.60
2018-06-16T00:16:34.389Z,52.40
2018-06-16T00:17:06.280Z,51.80
2018-06-16T00:17:38.028Z,52.40
2018-06-16T00:18:09.734Z,52.30
2018-06-16T00:18:41.467Z,52.00
2018-06-16T00:19:45.225Z,52.60
2018-06-16T00:20:16.955Z,52.20
2018-06-16T00:20:48.690Z,52.00
2018-06-16T00:21:20.413Z,52.00
2018-06-16T00:21:52.153Z,52.20
2018-06-16T00:22:23.892Z,52.30
2018-06-16T00:22:55.641Z,51.80
2018-06-16T00:23:27.387Z,52.50
2018-06-16T00:23:59.162Z,52.00
2018-06-16T00:24:30.879Z,51.90
2018-06-16T00:25:02.602Z,51.80
2018-06-16T00:25:34.355Z,52.10
2018-06-16T00:26:06.085Z,52.40
2018-06-16T00:26:37.861Z,52.40
2018-06-16T00:27:09.773Z,52.00
2018-06-16T00:27:41.518Z,52.20
2018-06-16T00:28:13.522Z,52.00
2018-06-16T00:28:45.212Z,52.60
2018-06-16T00:29:16.956Z,52.60
2018-06-16T00:29:48.690Z,52.50
2018-06-16T00:30:20.427Z,52.50
2018-06-16T00:30:52.166Z,52.80
2018-06-16T00:31:23.892Z,52.60
2018-06-16T00:31:55.629Z,52.60
2018-06-16T00:32:27.370Z,52.60
2018-06-16T00:32:59.124Z,52.80
2018-06-16T00:33:30.836Z,52.70
2018-06-16T00:34:02.582Z,52.60
2018-06-16T00:34:34.305Z,52.90
2018-06-16T00:35:06.030Z,52.80
2018-06-16T00:35:37.776Z,53.10
2018-06-16T00:36:09.509Z,52.40
2018-06-16T00:36:41.261Z,52.40
2018-06-16T00:37:13.005Z,52.50
2018-06-16T00:37:44.753Z,52.20
2018-06-16T00:38:16.487Z,52.20
2018-06-16T00:38:48.239Z,52.60
2018-06-16T00:39:19.964Z,52.90
2018-06-16T00:39:51.676Z,52.70
2018-06-16T00:40:23.409Z,52.80
2018-06-16T00:40:55.148Z,52.80
2018-06-16T00:41:26.873Z,52.80
2018-06-16T00:41:58.609Z,52.40
2018-06-16T00:42:30.351Z,52.70
2018-06-16T00:43:02.095Z,52.90
2018-06-16T00:43:33.849Z,53.00
2018-06-16T00:44:05.570Z,53.00
2018-06-16T00:44:37.285Z,53.10
2018-06-16T00:45:09.213Z,53.60
2018-06-16T00:45:40.946Z,53.10
2018-06-16T00:46:12.699Z,52.40
2018-06-16T00:46:44.430Z,52.60
2018-06-16T00:47:16.153Z,52.70
2018-06-16T00:47:47.910Z,53.00
2018-06-16T00:48:19.632Z,53.10
2018-06-16T00:48:51.347Z,53.20
2018-06-16T00:49:23.097Z,52.80
2018-06-16T00:49:54.896Z,53.20
2018-06-16T00:50:26.616Z,53.20
2018-06-16T00:50:58.372Z,53.30
2018-06-16T00:51:30.067Z,53.40
2018-06-16T00:52:01.798Z,53.20
2018-06-16T00:52:33.539Z,53.10
2018-06-16T00:53:05.285Z,53.00
2018-06-16T00:53:37.008Z,53.30
2018-06-16T00:54:08.769Z,53.20
2018-06-16T00:54:40.470Z,53.10
2018-06-16T00:55:12.241Z,53.20
2018-06-16T00:55:43.977Z,53.20
2018-06-16T00:56:15.722Z,53.20
2018-06-16T00:56:47.443Z,53.20
2018-06-16T00:57:19.183Z,53.20
2018-06-16T00:57:50.900Z,53.10
2018-06-16T00:58:22.630Z,53.20
2018-06-16T00:58:54.353Z,53.10
2018-06-16T00:59:26.132Z,53.10
2018-06-16T00:59:57.853Z,53.20
2018-06-16T01:00:29.599Z,53.00
2018-06-16T01:01:01.303Z,52.90
2018-06-16T01:01:33.031Z,52.90
2018-06-16T01:02:04.791Z,53.00
2018-06-16T01:02:36.494Z,53.00
2018-06-16T01:03:08.233Z,53.00
2018-06-16T01:03:39.994Z,53.00
2018-06-16T01:04:11.713Z,53.20
2018-06-16T01:04:43.446Z,52.90
2018-06-16T01:05:15.195Z,52.90
2018-06-16T01:05:46.920Z,53.20
2018-06-16T01:06:18.638Z,53.10
2018-06-16T01:06:50.397Z,53.00
2018-06-16T01:07:22.104Z,53.10
2018-06-16T01:07:53.836Z,53.10
2018-06-16T01:08:25.573Z,53.00
2018-06-16T01:08:57.296Z,53.30
2018-06-16T01:09:29.030Z,53.10
2018-06-16T01:10:00.812Z,53.00
2018-06-16T01:10:32.516Z,53.00
2018-06-16T01:11:04.240Z,53.20
2018-06-16T01:11:35.987Z,53.20
2018-06-16T01:12:07.710Z,53.10
2018-06-16T01:12:39.488Z,53.20
2018-06-16T01:13:11.226Z,53.20
2018-06-16T01:13:42.968Z,53.00
2018-06-16T01:14:14.696Z,52.90
2018-06-16T01:14:46.420Z,52.90
2018-06-16T01:15:18.142Z,53.00
2018-06-16T01:15:49.865Z,53.10
2018-06-16T01:16:21.641Z,53.00
2018-06-16T01:16:53.597Z,53.60
2018-06-16T01:17:25.340Z,53.00
2018-06-16T01:17:57.037Z,52.80
2018-06-16T01:18:28.757Z,52.80
2018-06-16T01:19:00.570Z,52.80
2018-06-16T01:19:32.269Z,52.90
2018-06-16T01:20:03.992Z,52.90
2018-06-16T01:20:35.758Z,52.80
2018-06-16T01:21:07.487Z,52.80
2018-06-16T01:21:39.214Z,52.90
2018-06-16T01:22:10.990Z,52.90
2018-06-16T01:22:42.732Z,52.90
2018-06-16T01:23:14.466Z,52.90
2018-06-16T01:23:46.202Z,52.90
2018-06-16T01:24:17.928Z,52.90
2018-06-16T01:24:49.640Z,53.00
2018-06-16T01:25:21.361Z,52.90
2018-06-16T01:25:53.085Z,52.90
2018-06-16T01:26:24.804Z,52.80
2018-06-16T01:26:56.545Z,52.80
2018-06-16T01:27:28.256Z,52.80
2018-06-16T01:28:00.027Z,52.90
2018-06-16T01:28:31.925Z,52.80
2018-06-16T01:29:03.656Z,52.70
2018-06-16T01:29:35.393Z,52.70
2018-06-16T01:30:07.166Z,52.80
2018-06-16T01:30:38.943Z,52.80
2018-06-16T01:31:10.675Z,52.80
2018-06-16T01:31:42.410Z,52.80
2018-06-16T01:32:14.169Z,52.80
2018-06-16T01:32:46.024Z,52.80
2018-06-16T01:33:17.758Z,52.80
2018-06-16T01:33:49.505Z,52.70
2018-06-16T01:34:21.246Z,52.70
2018-06-16T01:34:53.622Z,52.90
2018-06-16T01:35:25.332Z,52.80
2018-06-16T01:35:57.262Z,53.50
2018-06-16T01:36:28.989Z,52.80
2018-06-16T01:37:00.726Z,52.80
2018-06-16T01:37:32.452Z,52.80
2018-06-16T01:38:04.177Z,52.80
2018-06-16T01:38:35.915Z,52.80
2018-06-16T01:39:07.646Z,52.80
2018-06-16T01:39:39.395Z,52.70
2018-06-16T01:40:43.117Z,52.70
2018-06-16T01:41:14.837Z,52.70
2018-06-16T01:41:46.578Z,52.70
2018-06-16T01:42:18.306Z,52.70
2018-06-16T01:42:50.040Z,52.70
2018-06-16T01:43:21.774Z,52.30
2018-06-16T01:43:53.517Z,52.70
2018-06-16T01:44:25.249Z,52.60
2018-06-16T01:44:56.987Z,52.60
2018-06-16T01:45:28.739Z,52.60
2018-06-16T01:46:00.463Z,52.60
2018-06-16T01:46:32.201Z,52.50
2018-06-16T01:47:03.926Z,52.50
2018-06-16T01:47:35.646Z,52.60
2018-06-16T01:48:07.401Z,52.40
2018-06-16T01:48:39.178Z,52.50
2018-06-16T01:49:10.901Z,52.50
2018-06-16T01:49:42.620Z,52.50
2018-06-16T01:50:14.365Z,52.60
2018-06-16T01:50:46.086Z,52.50
2018-06-16T01:51:17.824Z,52.50
2018-06-16T01:51:49.577Z,52.40
2018-06-16T01:52:21.309Z,52.40
2018-06-16T01:52:53.058Z,52.40
2018-06-16T01:53:24.799Z,52.40
2018-06-16T01:53:56.520Z,52.30
2018-06-16T01:54:28.234Z,52.30
2018-06-16T01:54:59.982Z,52.30
2018-06-16T01:55:31.754Z,52.30
2018-06-16T01:56:03.475Z,52.30
2018-06-16T01:56:35.210Z,52.40
2018-06-16T01:57:06.934Z,52.40
2018-06-16T01:57:38.665Z,52.30
2018-06-16T01:58:10.453Z,52.40
2018-06-16T01:58:42.171Z,52.30
2018-06-16T01:59:13.901Z,52.30
2018-06-16T01:59:45.622Z,52.30
2018-06-16T02:00:17.347Z,52.30
2018-06-16T02:00:49.085Z,52.30
2018-06-16T02:01:20.795Z,52.30
2018-06-16T02:01:52.527Z,52.30
2018-06-16T02:02:24.258Z,52.20
2018-06-16T02:02:55.996Z,52.30
2018-06-16T02:03:27.725Z,52.20
2018-06-16T02:03:59.446Z,52.20
2018-06-16T02:04:31.207Z,52.70
2018-06-16T02:05:02.934Z,52.20
2018-06-16T02:05:34.658Z,52.20
2018-06-16T02:06:06.405Z,52.20
2018-06-16T02:06:38.122Z,52.10
2018-06-16T02:07:09.849Z,52.10
2018-06-16T02:07:41.577Z,52.20
2018-06-16T02:08:13.303Z,52.10
2018-06-16T02:08:45.108Z,52.00
2018-06-16T02:09:16.848Z,52.00
2018-06-16T02:09:48.574Z,52.00
2018-06-16T02:10:20.315Z,52.20
2018-06-16T02:10:52.080Z,52.00
2018-06-16T02:11:23.882Z,52.00
2018-06-16T02:11:55.591Z,51.90
2018-06-16T02:12:27.308Z,51.90
2018-06-16T02:12:59.054Z,52.10
2018-06-16T02:13:30.769Z,51.90
2018-06-16T02:14:02.510Z,51.90
2018-06-16T02:14:34.242Z,52.00
2018-06-16T02:15:05.960Z,52.10
2018-06-16T02:15:37.692Z,52.10
2018-06-16T02:16:09.422Z,52.10
2018-06-16T02:16:41.136Z,52.30
2018-06-16T02:17:12.874Z,51.90
2018-06-16T02:17:44.593Z,51.90
2018-06-16T02:18:16.326Z,51.90
2018-06-16T02:18:48.123Z,51.90
2018-06-16T02:19:19.872Z,51.90
2018-06-16T02:19:51.590Z,52.00
2018-06-16T02:20:23.331Z,51.80
2018-06-16T02:20:55.051Z,51.80
2018-06-16T02:21:26.768Z,51.80
2018-06-16T02:21:58.512Z,51.70
2018-06-16T02:22:30.226Z,51.90
2018-06-16T02:23:01.954Z,51.80
2018-06-16T02:23:33.713Z,51.70
2018-06-16T02:24:05.406Z,51.70
2018-06-16T02:24:37.137Z,51.80
2018-06-16T02:25:08.914Z,51.70
2018-06-16T02:25:40.600Z,51.70
2018-06-16T02:26:12.335Z,51.70
2018-06-16T02:26:44.078Z,51.90
2018-06-16T02:27:15.798Z,51.70
2018-06-16T02:27:47.521Z,51.60
2018-06-16T02:28:51.270Z,51.90
2018-06-16T02:29:23.088Z,51.60
2018-06-16T02:29:54.789Z,51.70
2018-06-16T02:30:26.493Z,51.70
2018-06-16T02:30:58.228Z,51.70
2018-06-16T02:31:29.949Z,51.70
2018-06-16T02:32:01.664Z,51.60
2018-06-16T02:32:33.395Z,51.50
2018-06-16T02:33:05.125Z,51.50
2018-06-16T02:33:36.850Z,51.50
2018-06-16T02:34:08.587Z,51.60
2018-06-16T02:34:40.416Z,51.60
2018-06-16T02:35:12.142Z,51.50
2018-06-16T02:35:43.861Z,52.10
2018-06-16T02:36:15.587Z,51.50
2018-06-16T02:36:47.330Z,51.50
2018-06-16T02:37:19.064Z,51.60
2018-06-16T02:37:50.788Z,51.40
2018-06-16T02:38:22.507Z,51.50
2018-06-16T02:38:54.245Z,51.50
2018-06-16T02:39:25.962Z,51.40
2018-06-16T02:39:57.689Z,51.40
2018-06-16T02:40:29.419Z,51.40
2018-06-16T02:41:01.152Z,51.50
2018-06-16T02:41:32.875Z,51.40
2018-06-16T02:42:04.613Z,51.40
2018-06-16T02:42:36.342Z,51.40
2018-06-16T02:43:08.071Z,51.40
2018-06-16T02:43:39.808Z,52.10
2018-06-16T02:44:11.524Z,51.60
2018-06-16T02:44:43.259Z,51.50
2018-06-16T02:45:15.074Z,51.50
2018-06-16T02:45:46.786Z,51.60
2018-06-16T02:46:18.527Z,51.40
2018-06-16T02:46:50.438Z,51.40
2018-06-16T02:47:22.157Z,51.40
2018-06-16T02:48:25.903Z,51.50
2018-06-16T02:48:57.630Z,51.40
2018-06-16T02:49:29.358Z,51.50
2018-06-16T02:50:01.084Z,51.30
2018-06-16T02:50:32.984Z,51.30
2018-06-16T02:51:04.746Z,51.40
2018-06-16T02:51:36.500Z,51.40
2018-06-16T02:52:08.428Z,51.30
2018-06-16T02:52:40.154Z,51.30
2018-06-16T02:53:11.995Z,51.30
2018-06-16T02:53:43.702Z,51.20
2018-06-16T02:54:15.647Z,51.30
2018-06-16T02:54:47.537Z,51.20
2018-06-16T02:55:19.258Z,51.20
2018-06-16T02:55:51.009Z,51.20
2018-06-16T02:56:22.851Z,51.20
2018-06-16T02:56:54.579Z,51.20
2018-06-16T02:57:26.305Z,51.10
2018-06-16T02:57:58.022Z,51.00
2018-06-16T02:58:29.759Z,51.00
2018-06-16T02:59:01.470Z,51.10
2018-06-16T02:59:33.211Z,50.90
2018-06-16T03:00:04.953Z,50.80
2018-06-16T03:00:36.673Z,50.90
2018-06-16T03:01:08.395Z,51.00
2018-06-16T03:01:40.122Z,50.70
2018-06-16T03:02:11.854Z,50.80
2018-06-16T03:02:43.580Z,50.80
2018-06-16T03:03:15.359Z,50.70
2018-06-16T03:03:47.229Z,50.70
2018-06-16T03:04:18.961Z,50.70
2018-06-16T03:04:50.680Z,50.60
2018-06-16T03:05:22.400Z,50.60
2018-06-16T03:05:54.133Z,50.70
2018-06-16T03:06:25.849Z,50.80
2018-06-16T03:06:57.579Z,51.20
2018-06-16T03:07:29.306Z,51.00
2018-06-16T03:08:01.020Z,51.00
2018-06-16T03:08:32.745Z,50.90
2018-06-16T03:09:04.500Z,50.90
2018-06-16T03:09:36.197Z,50.90
2018-06-16T03:10:07.925Z,50.90
2018-06-16T03:10:39.682Z,50.90
2018-06-16T03:11:11.478Z,50.90
2018-06-16T03:11:43.177Z,50.90
2018-06-16T03:12:14.919Z,50.90
2018-06-16T03:12:46.637Z,50.80
2018-06-16T03:13:18.350Z,50.90
2018-06-16T03:13:50.085Z,50.90
2018-06-16T03:14:21.814Z,50.80
2018-06-16T03:14:53.554Z,50.80
2018-06-16T03:15:25.336Z,50.80
2018-06-16T03:15:57.060Z,51.00
2018-06-16T03:16:28.778Z,50.80
2018-06-16T03:17:00.519Z,51.10
2018-06-16T03:17:32.236Z,50.80
2018-06-16T03:18:03.954Z,51.30
2018-06-16T03:18:35.696Z,51.20
2018-06-16T03:19:39.428Z,51.10
2018-06-16T03:20:11.148Z,51.00
2018-06-16T03:20:42.908Z,51.00
2018-06-16T03:21:14.634Z,51.00
2018-06-16T03:22:18.399Z,50.90
2018-06-16T03:22:50.115Z,51.00
2018-06-16T03:23:21.842Z,50.90
2018-06-16T03:23:53.596Z,50.80
2018-06-16T03:24:25.295Z,50.90
2018-06-16T03:24:57.210Z,51.00
2018-06-16T03:25:28.933Z,51.10
2018-06-16T03:26:00.662Z,51.00
2018-06-16T03:26:32.405Z,51.00
2018-06-16T03:27:04.127Z,50.90
2018-06-16T03:27:35.870Z,50.90
2018-06-16T03:28:39.607Z,51.00
2018-06-16T03:29:11.352Z,51.00
2018-06-16T03:29:43.049Z,51.00
2018-06-16T03:30:14.781Z,51.10
2018-06-16T03:30:46.580Z,51.10
2018-06-16T03:31:18.406Z,51.10
2018-06-16T03:31:50.126Z,51.10
2018-06-16T03:32:21.865Z,51.30
2018-06-16T03:32:53.595Z,51.20
2018-06-16T03:33:25.338Z,51.30
2018-06-16T03:33:57.071Z,51.20
2018-06-16T03:34:28.809Z,51.20
2018-06-16T03:35:00.747Z,51.10
2018-06-16T03:35:32.489Z,51.30
2018-06-16T03:36:04.211Z,51.10
2018-06-16T03:36:35.949Z,51.10
2018-06-16T03:37:07.672Z,51.00
2018-06-16T03:37:39.394Z,51.20
2018-06-16T03:38:11.155Z,51.00
2018-06-16T03:38:42.874Z,51.10
2018-06-16T03:39:14.679Z,51.10
2018-06-16T03:39:46.361Z,51.10
2018-06-16T03:40:18.102Z,51.00
2018-06-16T03:40:49.827Z,51.10
2018-06-16T03:41:21.553Z,51.00
2018-06-16T03:41:53.303Z,51.10
2018-06-16T03:42:25.029Z,51.20
2018-06-16T03:42:56.750Z,51.20
2018-06-16T03:43:28.468Z,51.10
2018-06-16T03:44:00.193Z,51.10
2018-06-16T03:44:31.943Z,51.10
2018-06-16T03:45:03.641Z,51.10
2018-06-16T03:45:35.472Z,51.00
2018-06-16T03:46:07.398Z,51.10
2018-06-16T03:46:39.125Z,51.10
2018-06-16T03:47:10.849Z,51.00
2018-06-16T03:47:42.565Z,51.00
2018-06-16T03:48:14.314Z,51.00
2018-06-16T03:48:46.099Z,51.20
2018-06-16T03:49:18.091Z,51.00
2018-06-16T03:49:49.814Z,51.00
2018-06-16T03:50:21.554Z,50.50
2018-06-16T03:50:53.283Z,51.10
2018-06-16T03:51:25.002Z,51.20
2018-06-16T03:51:56.758Z,51.10
2018-06-16T03:52:28.667Z,51.00
2018-06-16T03:53:00.389Z,51.10
2018-06-16T03:53:32.144Z,51.10
2018-06-16T03:54:03.870Z,51.00
2018-06-16T03:54:35.647Z,51.20
2018-06-16T03:55:07.353Z,51.10
2018-06-16T03:55:39.088Z,50.40
2018-06-16T03:56:10.807Z,51.00
2018-06-16T03:56:42.528Z,51.00
2018-06-16T03:57:14.250Z,51.00
2018-06-16T03:57:45.973Z,51.10
2018-06-16T03:58:17.717Z,51.10
2018-06-16T03:58:49.450Z,51.10
2018-06-16T03:59:21.163Z,51.10
2018-06-16T03:59:52.900Z,51.00
2018-06-16T04:00:24.617Z,51.00
2018-06-16T04:00:56.341Z,51.10
2018-06-16T04:01:28.072Z,51.00
2018-06-16T04:01:59.787Z,50.90
2018-06-16T04:02:31.514Z,50.90
2018-06-16T04:03:03.251Z,51.00
2018-06-16T04:03:35.026Z,51.00
2018-06-16T04:04:06.726Z,51.00
2018-06-16T04:04:38.467Z,51.00
2018-06-16T04:05:10.200Z,51.50
2018-06-16T04:05:41.918Z,50.90
2018-06-16T04:06:13.699Z,51.00
2018-06-16T04:06:45.432Z,51.00
2018-06-16T04:07:17.151Z,51.00
2018-06-16T04:07:48.869Z,50.90
2018-06-16T04:08:20.632Z,51.00
2018-06-16T04:08:52.335Z,50.90
2018-06-16T04:09:24.057Z,50.90
2018-06-16T04:09:55.807Z,51.00
2018-06-16T04:10:27.527Z,51.50
2018-06-16T04:10:59.261Z,50.90
2018-06-16T04:11:31.040Z,50.90
2018-06-16T04:12:02.776Z,51.00
2018-06-16T04:12:34.500Z,50.90
2018-06-16T04:13:06.321Z,51.00
2018-06-16T04:13:38.021Z,50.90
2018-06-16T04:14:09.749Z,50.80
2018-06-16T04:14:41.479Z,50.30
2018-06-16T04:15:13.197Z,50.80
2018-06-16T04:15:44.918Z,50.80
2018-06-16T04:16:16.653Z,50.90
2018-06-16T04:16:48.559Z,51.10
2018-06-16T04:17:20.311Z,51.00
2018-06-16T04:17:52.033Z,50.90
2018-06-16T04:18:23.766Z,51.20
2018-06-16T04:18:55.513Z,50.90
2018-06-16T04:19:27.248Z,51.00
2018-06-16T04:19:58.996Z,51.00
2018-06-16T04:20:30.887Z,50.90
2018-06-16T04:21:02.625Z,51.60
2018-06-16T04:21:34.353Z,50.90
2018-06-16T04:22:06.077Z,51.00
2018-06-16T04:22:37.818Z,50.80
2018-06-16T04:23:09.540Z,50.90
2018-06-16T04:23:41.265Z,50.80
2018-06-16T04:24:45.047Z,51.60
2018-06-16T04:25:16.777Z,51.60
2018-06-16T04:25:48.693Z,51.00
2018-06-16T04:26:20.445Z,51.10
2018-06-16T04:26:52.150Z,51.00
2018-06-16T04:27:23.884Z,51.00
2018-06-16T04:27:55.633Z,51.00
2018-06-16T04:28:27.364Z,50.90
2018-06-16T04:28:59.105Z,51.70
2018-06-16T04:29:30.844Z,50.90
2018-06-16T04:30:02.659Z,50.90
2018-06-16T04:30:34.351Z,50.70
2018-06-16T04:31:06.078Z,50.90
2018-06-16T04:31:37.840Z,51.00
2018-06-16T04:32:09.575Z,50.80
2018-06-16T04:32:41.304Z,50.80
2018-06-16T04:33:13.047Z,50.80
2018-06-16T04:33:44.974Z,50.80
2018-06-16T04:34:16.716Z,50.70
2018-06-16T04:34:48.495Z,50.70
2018-06-16T04:35:20.384Z,50.70
2018-06-16T04:35:52.109Z,50.70
2018-06-16T04:36:23.838Z,50.60
2018-06-16T04:36:55.567Z,50.60
2018-06-16T04:37:27.305Z,50.60
2018-06-16T04:37:59.044Z,50.70
2018-06-16T04:38:30.781Z,50.70
2018-06-16T04:39:02.510Z,50.70
2018-06-16T04:39:34.254Z,50.70
2018-06-16T04:40:06.089Z,50.60
2018-06-16T04:41:09.813Z,50.50
2018-06-16T04:41:41.534Z,50.50
2018-06-16T04:42:13.251Z,50.50
2018-06-16T04:42:44.972Z,50.60
2018-06-16T04:43:16.700Z,50.60
2018-06-16T04:43:48.434Z,50.60
2018-06-16T04:44:20.168Z,50.60
2018-06-16T04:44:51.879Z,50.70
2018-06-16T04:45:23.662Z,50.60
2018-06-16T04:45:55.536Z,50.60
2018-06-16T04:46:27.288Z,50.80
2018-06-16T04:46:59.006Z,50.60
2018-06-16T04:47:30.738Z,50.50
2018-06-16T04:48:02.469Z,50.60
2018-06-16T04:48:34.395Z,50.60
2018-06-16T04:49:06.122Z,50.50
2018-06-16T04:49:37.842Z,50.20
2018-06-16T04:50:09.580Z,50.90
2018-06-16T04:50:41.305Z,50.40
2018-06-16T04:51:13.022Z,50.40
2018-06-16T04:51:44.757Z,50.50
2018-06-16T04:52:16.485Z,50.40
2018-06-16T04:52:48.199Z,50.20
2018-06-16T04:53:19.937Z,50.30
2018-06-16T04:53:51.659Z,50.20
2018-06-16T04:54:23.661Z,50.30
2018-06-16T04:54:55.390Z,50.20
2018-06-16T04:55:27.118Z,50.20
2018-06-16T04:55:58.839Z,50.20
2018-06-16T04:56:30.554Z,50.30
2018-06-16T04:57:02.320Z,50.30
2018-06-16T04:57:34.218Z,50.20
2018-06-16T04:58:05.938Z,50.10
2018-06-16T04:58:37.688Z,50.30
2018-06-16T04:59:09.417Z,50.30
2018-06-16T04:59:41.146Z,50.20
2018-06-16T05:00:12.883Z,50.20
2018-06-16T05:00:44.601Z,50.30
2018-06-16T05:01:48.372Z,50.40
2018-06-16T05:02:20.090Z,50.30
2018-06-16T05:02:51.840Z,50.20
2018-06-16T05:03:23.573Z,50.30
2018-06-16T05:03:55.304Z,50.30
2018-06-16T05:04:27.025Z,50.30
2018-06-16T05:04:58.751Z,50.30
2018-06-16T05:05:30.473Z,50.30
2018-06-16T05:06:02.221Z,50.30
2018-06-16T05:06:33.936Z,50.40
2018-06-16T05:07:05.665Z,50.40
2018-06-16T05:07:37.397Z,50.50
2018-06-16T05:08:09.110Z,50.40
2018-06-16T05:08:40.889Z,50.40
2018-06-16T05:09:12.755Z,50.80
2018-06-16T05:09:44.492Z,50.40
2018-06-16T05:10:16.217Z,50.40
2018-06-16T05:10:47.970Z,50.40
2018-06-16T05:11:19.708Z,50.40
2018-06-16T05:11:51.435Z,50.30
2018-06-16T05:12:23.162Z,50.30
2018-06-16T05:12:54.905Z,50.40
2018-06-16T05:13:26.645Z,50.40
2018-06-16T05:13:58.367Z,50.40
2018-06-16T05:14:30.107Z,50.30
2018-06-16T05:15:01.832Z,50.30
2018-06-16T05:15:33.569Z,50.30
2018-06-16T05:16:05.311Z,50.40
2018-06-16T05:16:37.049Z,50.30
2018-06-16T05:17:08.773Z,50.30
2018-06-16T05:17:40.516Z,50.40
2018-06-16T05:18:12.242Z,50.40
2018-06-16T05:18:43.978Z,50.50
2018-06-16T05:19:15.720Z,50.40
2018-06-16T05:19:47.451Z,50.40
2018-06-16T05:20:19.173Z,50.20
2018-06-16T05:20:50.927Z,50.20
2018-06-16T05:21:22.643Z,50.30
2018-06-16T05:21:54.407Z,50.30
2018-06-16T05:22:26.331Z,50.20
2018-06-16T05:22:58.057Z,50.80
2018-06-16T05:23:29.780Z,50.90
2018-06-16T05:24:01.501Z,50.20
2018-06-16T05:24:33.225Z,50.20
2018-06-16T05:25:04.961Z,50.20
2018-06-16T05:25:36.747Z,50.20
2018-06-16T05:26:08.627Z,50.20
2018-06-16T05:26:40.354Z,50.70
2018-06-16T05:27:12.107Z,50.20
2018-06-16T05:27:43.807Z,50.20
2018-06-16T05:28:15.541Z,50.20
2018-06-16T05:28:47.275Z,50.20
2018-06-16T05:29:18.996Z,50.20
2018-06-16T05:29:50.791Z,50.20
2018-06-16T05:30:22.489Z,50.20
2018-06-16T05:30:54.198Z,50.20
2018-06-16T05:31:25.949Z,50.20
2018-06-16T05:31:57.719Z,50.10
2018-06-16T05:32:29.640Z,50.00
2018-06-16T05:33:01.381Z,50.20
2018-06-16T05:33:33.110Z,50.20
2018-06-16T05:34:04.834Z,50.20
2018-06-16T05:34:36.575Z,50.10
2018-06-16T05:35:08.292Z,50.10
2018-06-16T05:35:40.021Z,50.20
2018-06-16T05:36:11.794Z,49.80
2018-06-16T05:36:43.503Z,50.40
2018-06-16T05:37:15.233Z,50.20
2018-06-16T05:37:47.005Z,50.40
2018-06-16T05:38:18.763Z,50.40
2018-06-16T05:38:50.669Z,50.40
2018-06-16T05:39:22.500Z,50.50
2018-06-16T05:39:54.189Z,50.40
2018-06-16T05:40:25.905Z,50.60
2018-06-16T05:40:57.644Z,50.70
2018-06-16T05:41:29.581Z,51.00
2018-06-16T05:42:01.313Z,50.70
2018-06-16T05:42:33.039Z,51.00
2018-06-16T05:43:04.785Z,50.70
2018-06-16T05:43:36.510Z,50.70
2018-06-16T05:44:08.224Z,50.80
2018-06-16T05:44:39.982Z,50.90
2018-06-16T05:45:11.703Z,50.80
2018-06-16T05:45:43.448Z,50.90
2018-06-16T05:46:15.205Z,51.00
2018-06-16T05:46:46.940Z,51.00
2018-06-16T05:47:18.673Z,50.80
2018-06-16T05:47:50.414Z,51.50
2018-06-16T05:48:22.136Z,50.70
2018-06-16T05:48:53.853Z,50.60
2018-06-16T05:49:25.597Z,50.70
2018-06-16T05:49:57.327Z,51.20
2018-06-16T05:50:29.052Z,50.80
2018-06-16T05:51:00.793Z,50.80
2018-06-16T05:51:32.517Z,50.80
2018-06-16T05:52:04.246Z,50.80
2018-06-16T05:52:35.965Z,50.60
2018-06-16T05:53:39.772Z,50.70
2018-06-16T05:54:11.501Z,50.80
2018-06-16T05:54:43.228Z,50.60
2018-06-16T05:55:14.977Z,51.40
2018-06-16T05:55:46.670Z,50.80
2018-06-16T05:56:18.471Z,50.70
2018-06-16T05:56:50.204Z,50.70
2018-06-16T05:57:21.929Z,50.70
2018-06-16T05:57:53.654Z,51.50
2018-06-16T05:58:25.383Z,50.70
2018-06-16T05:58:57.110Z,50.80
2018-06-16T05:59:28.826Z,50.70
2018-06-16T06:00:00.555Z,50.70
2018-06-16T06:00:32.296Z,50.80
2018-06-16T06:01:04.237Z,50.90
2018-06-16T06:01:36.138Z,50.80
2018-06-16T06:02:07.866Z,50.70
2018-06-16T06:02:39.589Z,50.80
2018-06-16T06:03:11.352Z,50.90
2018-06-16T06:03:43.064Z,50.90
2018-06-16T06:04:14.797Z,50.80
2018-06-16T06:04:46.570Z,50.70
2018-06-16T06:05:18.305Z,50.90
2018-06-16T06:05:50.018Z,50.80
2018-06-16T06:06:21.768Z,50.90
2018-06-16T06:06:53.503Z,50.80
2018-06-16T06:07:25.222Z,50.70
2018-06-16T06:07:56.968Z,50.80
2018-06-16T06:09:00.714Z,50.90
2018-06-16T06:09:32.467Z,51.10
2018-06-16T06:10:04.193Z,51.00
2018-06-16T06:10:35.995Z,50.80
2018-06-16T06:11:07.859Z,50.70
2018-06-16T06:11:39.578Z,50.80
2018-06-16T06:12:11.316Z,50.70
2018-06-16T06:12:43.032Z,50.80
2018-06-16T06:13:14.783Z,50.80
2018-06-16T06:13:46.519Z,50.70
2018-06-16T06:14:18.259Z,50.70
2018-06-16T06:14:49.982Z,50.80
2018-06-16T06:15:21.713Z,50.80
2018-06-16T06:15:53.454Z,51.00
2018-06-16T06:16:25.188Z,51.00
2018-06-16T06:16:56.919Z,50.90
2018-06-16T06:17:28.634Z,50.90
2018-06-16T06:18:00.371Z,51.20
2018-06-16T06:18:32.180Z,50.80
2018-06-16T06:19:03.894Z,50.70
2018-06-16T06:19:35.617Z,50.80
2018-06-16T06:20:07.372Z,50.70
2018-06-16T06:20:39.094Z,50.60
2018-06-16T06:21:10.818Z,50.50
2018-06-16T06:21:42.571Z,50.70
2018-06-16T06:22:14.299Z,50.70
2018-06-16T06:22:46.065Z,50.50
2018-06-16T06:23:17.798Z,50.50
2018-06-16T06:23:49.539Z,50.20
2018-06-16T06:24:21.304Z,50.20
2018-06-16T06:24:53.040Z,50.20
2018-06-16T06:25:24.771Z,50.00
2018-06-16T06:25:56.496Z,50.20
2018-06-16T06:26:28.362Z,50.40
2018-06-16T06:27:00.070Z,50.20
2018-06-16T06:27:31.802Z,50.50
2018-06-16T06:28:03.521Z,50.40
2018-06-16T06:28:35.247Z,50.20
2018-06-16T06:29:07.034Z,50.10
2018-06-16T06:29:38.768Z,50.00
2018-06-16T06:30:10.572Z,50.00
2018-06-16T06:30:42.288Z,49.70
2018-06-16T06:31:14.011Z,49.80
2018-06-16T06:31:45.754Z,49.60
2018-06-16T06:32:17.559Z,49.50
2018-06-16T06:32:49.263Z,49.80
2018-06-16T06:33:20.994Z,49.50
2018-06-16T06:33:52.774Z,49.50
2018-06-16T06:34:24.697Z,49.40
2018-06-16T06:34:56.426Z,50.00
2018-06-16T06:35:28.133Z,49.20
2018-06-16T06:35:59.883Z,49.20
2018-06-16T06:36:31.635Z,49.20
2018-06-16T06:37:03.362Z,48.80
2018-06-16T06:37:35.097Z,49.10
2018-06-16T06:38:06.868Z,49.10
2018-06-16T06:38:38.579Z,49.00
2018-06-16T06:39:10.294Z,49.00
2018-06-16T06:39:42.054Z,49.20
2018-06-16T06:40:13.774Z,49.30
2018-06-16T06:40:45.513Z,49.30
2018-06-16T06:41:17.287Z,49.70
2018-06-16T06:41:49.029Z,49.90
2018-06-16T06:42:20.752Z,49.80
2018-06-16T06:42:52.476Z,49.90
2018-06-16T06:43:24.260Z,50.40
2018-06-16T06:43:56.189Z,49.50
2018-06-16T06:44:27.907Z,49.50
2018-06-16T06:44:59.623Z,49.40
2018-06-16T06:45:31.354Z,49.50
2018-06-16T06:46:03.089Z,49.50
2018-06-16T06:46:34.833Z,49.40
2018-06-16T06:47:06.584Z,49.30
2018-06-16T06:47:38.290Z,49.20
2018-06-16T06:48:10.016Z,49.00
2018-06-16T06:48:41.761Z,49.00
2018-06-16T06:49:13.482Z,49.00
2018-06-16T06:49:45.205Z,49.70
2018-06-16T06:50:16.954Z,49.50
2018-06-16T06:50:48.673Z,49.60
2018-06-16T06:51:52.461Z,49.20
2018-06-16T06:52:24.172Z,49.20
2018-06-16T06:52:55.904Z,49.30
2018-06-16T06:53:27.631Z,49.40
2018-06-16T06:53:59.340Z,49.70
2018-06-16T06:54:31.101Z,49.90
2018-06-16T06:55:02.810Z,49.40
2018-06-16T06:55:34.527Z,48.90
2018-06-16T06:56:06.280Z,48.90